Terminal Aerodrome Forecast
Issued by NWS

Home | Current Version | Previous Version | Text Only | Print | Product List | Glossary On
Versions: 1 2 3 4 5 6 7 8 9 10 11 12 13
000
FTUS45 KGGW 301100 RRA
TAFSDY
TAF
KSDY 301145Z 3012/3112 16007KT P6SM SKC
     FM301500 16015KT P6SM BKN120
     FM302000 20012KT P6SM VCTS SCT050CB BKN100
     FM302300 27014KT P6SM VCTS SCT040CB BKN090
     FM310200 28005KT P6SM BKN250
      AMD LTD TO CLD VIS AND WIND=

USA.gov is the U.S. government's official web portal to all federal, state and local government web resources and services.